createdAt,value
2019-03-21T00:01:33.532Z,8.43
2019-03-21T00:04:05.479Z,11.70
2019-03-21T00:06:34.366Z,8.63
2019-03-21T00:09:06.591Z,7.70
2019-03-21T00:11:55.589Z,8.60
2019-03-21T00:14:39.793Z,12.33
2019-03-21T00:17:08.018Z,9.13
2019-03-21T00:19:36.408Z,8.50
2019-03-21T00:22:11.424Z,5.97
2019-03-21T00:24:39.598Z,13.67
2019-03-21T00:27:08.475Z,7.33
2019-03-21T00:29:37.515Z,11.73
2019-03-21T00:32:05.545Z,12.50
2019-03-21T00:34:34.610Z,9.20
2019-03-21T00:37:02.892Z,8.57
2019-03-21T00:39:33.055Z,13.43
2019-03-21T00:42:01.364Z,9.50
2019-03-21T00:44:29.801Z,9.47
2019-03-21T00:46:59.108Z,12.53
2019-03-21T00:49:27.233Z,8.73
2019-03-21T00:51:55.313Z,5.93
2019-03-21T00:54:25.838Z,5.90
2019-03-21T00:56:53.947Z,8.50
2019-03-21T00:59:22.265Z,5.50
2019-03-21T01:01:50.514Z,7.43
2019-03-21T01:04:19.139Z,6.97
2019-03-21T01:06:47.759Z,5.30
2019-03-21T01:09:16.412Z,7.17
2019-03-21T01:11:44.785Z,9.23
2019-03-21T01:14:13.466Z,10.63
2019-03-21T01:16:42.165Z,10.40
2019-03-21T01:19:10.549Z,8.10
2019-03-21T01:21:38.735Z,8.33
2019-03-21T01:24:07.304Z,9.63
2019-03-21T01:26:35.785Z,10.40
2019-03-21T01:29:03.998Z,12.10
2019-03-21T01:31:33.026Z,11.73
2019-03-21T01:34:01.363Z,7.57
2019-03-21T01:36:29.830Z,8.70
2019-03-21T01:38:58.624Z,12.87
2019-03-21T01:41:26.741Z,16.33
2019-03-21T01:43:55.265Z,12.77
2019-03-21T01:46:23.375Z,14.50
2019-03-21T01:48:51.777Z,9.93
2019-03-21T01:51:20.437Z,10.40
2019-03-21T01:53:49.093Z,10.77
2019-03-21T01:56:17.264Z,17.50
2019-03-21T01:58:45.291Z,12.40
2019-03-21T02:01:13.764Z,12.80
2019-03-21T02:03:42.701Z,16.13
2019-03-21T02:06:11.850Z,9.53
2019-03-21T02:08:40.134Z,9.90
2019-03-21T02:11:08.910Z,12.73
2019-03-21T02:13:37.946Z,13.47
2019-03-21T02:16:06.050Z,10.53
2019-03-21T02:18:34.129Z,12.30
2019-03-21T02:21:02.683Z,12.37
2019-03-21T02:23:31.256Z,13.50
2019-03-21T02:26:00.382Z,14.80
2019-03-21T02:28:28.734Z,12.80
2019-03-21T02:30:56.793Z,9.60
2019-03-21T02:33:27.676Z,10.20
2019-03-21T02:35:56.437Z,11.90
2019-03-21T02:38:25.507Z,10.50
2019-03-21T02:40:54.172Z,11.50
2019-03-21T02:43:23.256Z,11.07
2019-03-21T02:45:52.615Z,10.03
2019-03-21T02:48:22.557Z,10.13
2019-03-21T02:50:50.939Z,11.47
2019-03-21T02:53:19.309Z,9.30
2019-03-21T02:55:47.336Z,13.10
2019-03-21T02:58:16.341Z,10.23
2019-03-21T03:00:44.745Z,10.37
2019-03-21T03:03:13.597Z,8.53
2019-03-21T03:05:41.991Z,9.17
2019-03-21T03:08:10.373Z,8.37
2019-03-21T03:10:44.483Z,8.80
2019-03-21T03:13:12.645Z,8.40
2019-03-21T03:15:40.891Z,10.30
2019-03-21T03:18:09.540Z,11.07
2019-03-21T03:20:37.619Z,7.90
2019-03-21T03:23:05.723Z,9.90
2019-03-21T03:25:34.114Z,8.40
2019-03-21T03:28:05.864Z,11.10
2019-03-21T03:30:34.190Z,14.70
2019-03-21T03:33:02.974Z,13.03
2019-03-21T03:35:31.464Z,7.73
2019-03-21T03:37:59.547Z,9.83
2019-03-21T03:40:31.060Z,7.10
2019-03-21T03:42:59.555Z,10.80
2019-03-21T03:45:37.459Z,6.10
2019-03-21T03:48:00.117Z,10.03
2019-03-21T03:50:28.840Z,8.43
2019-03-21T03:52:57.462Z,8.27
2019-03-21T03:55:26.166Z,8.97
2019-03-21T03:57:55.318Z,6.97
2019-03-21T04:00:23.524Z,8.20
2019-03-21T04:02:52.307Z,7.30
2019-03-21T04:05:20.986Z,15.63
2019-03-21T04:07:50.852Z,10.07
2019-03-21T04:10:25.809Z,9.73
2019-03-21T04:12:54.217Z,12.00
2019-03-21T04:15:25.833Z,8.77
2019-03-21T04:17:55.348Z,7.83
2019-03-21T04:20:27.345Z,9.50
2019-03-21T04:22:56.349Z,10.97
2019-03-21T04:25:28.104Z,8.80
2019-03-21T04:27:57.253Z,11.03
2019-03-21T04:30:25.816Z,11.23
2019-03-21T04:32:54.665Z,11.20
2019-03-21T04:35:23.638Z,7.60
2019-03-21T04:37:54.065Z,8.23
2019-03-21T04:40:22.236Z,10.23
2019-03-21T04:42:51.248Z,9.73
2019-03-21T04:45:20.235Z,7.80
2019-03-21T04:47:50.361Z,8.97
2019-03-21T04:50:21.340Z,11.80
2019-03-21T04:52:49.946Z,6.80
2019-03-21T04:55:18.606Z,8.47
2019-03-21T04:57:47.383Z,12.60
2019-03-21T05:00:18.432Z,8.20
2019-03-21T05:02:47.065Z,7.10
2019-03-21T05:05:15.089Z,8.93
2019-03-21T05:07:43.956Z,6.43
2019-03-21T05:10:16.986Z,11.13
2019-03-21T05:12:48.794Z,12.33
2019-03-21T05:15:20.487Z,7.13
2019-03-21T05:17:49.558Z,8.47
2019-03-21T05:20:20.820Z,12.93
2019-03-21T05:22:50.516Z,5.40
2019-03-21T05:25:22.433Z,8.03
2019-03-21T05:27:51.506Z,11.70
2019-03-21T05:30:24.072Z,8.30
2019-03-21T05:32:54.824Z,8.37
2019-03-21T05:35:24.305Z,7.80
2019-03-21T05:37:53.291Z,40.37
2019-03-21T05:40:22.242Z,53.10
2019-03-21T05:42:58.101Z,26.30
2019-03-21T05:45:30.175Z,16.10
2019-03-21T05:47:59.890Z,10.57
2019-03-21T05:50:30.123Z,15.77
2019-03-21T05:52:58.856Z,9.37
2019-03-21T05:55:27.520Z,9.67
2019-03-21T05:57:57.370Z,6.93
2019-03-21T06:00:33.758Z,8.20
2019-03-21T06:03:02.420Z,48.83
2019-03-21T06:05:30.931Z,41.67
2019-03-21T06:08:09.559Z,22.27
2019-03-21T06:10:38.648Z,15.03
2019-03-21T06:13:08.019Z,8.33
2019-03-21T06:15:37.893Z,7.90
2019-03-21T06:18:42.015Z,6.97
2019-03-21T06:21:18.507Z,9.10
2019-03-21T06:24:13.094Z,5.77
2019-03-21T06:26:53.394Z,6.83
2019-03-21T06:29:22.281Z,8.80
2019-03-21T06:31:50.960Z,11.90
2019-03-21T06:34:20.065Z,7.23
2019-03-21T06:36:50.352Z,9.10
2019-03-21T06:39:19.315Z,6.67
2019-03-21T06:41:48.393Z,21.73
2019-03-21T06:44:17.894Z,22.33
2019-03-21T06:46:49.724Z,18.80
2019-03-21T06:49:16.791Z,8.70
2019-03-21T06:51:45.253Z,10.10
2019-03-21T06:54:13.684Z,9.40
2019-03-21T06:56:42.096Z,10.70
2019-03-21T06:59:10.817Z,12.50
2019-03-21T07:01:40.019Z,12.03
2019-03-21T07:04:09.045Z,7.70
2019-03-21T07:06:37.887Z,9.77
2019-03-21T07:09:07.802Z,6.20
2019-03-21T07:11:36.802Z,13.43
2019-03-21T07:14:05.247Z,47.40
2019-03-21T07:16:34.053Z,29.87
2019-03-21T07:19:03.503Z,18.97
2019-03-21T07:21:32.172Z,10.97
2019-03-21T07:24:02.072Z,11.33
2019-03-21T07:26:31.231Z,10.43
2019-03-21T07:29:02.422Z,9.80
2019-03-21T07:31:31.204Z,9.37
2019-03-21T07:33:59.612Z,9.60
2019-03-21T07:36:28.914Z,8.33
2019-03-21T07:38:58.084Z,8.80
2019-03-21T07:41:29.625Z,9.27
2019-03-21T07:43:58.509Z,7.43
2019-03-21T07:46:28.227Z,41.90
2019-03-21T07:48:56.641Z,22.17
2019-03-21T07:51:25.740Z,16.47
2019-03-21T07:53:53.962Z,13.03
2019-03-21T07:56:24.950Z,7.97
2019-03-21T07:58:53.210Z,9.00
2019-03-21T08:01:22.477Z,8.53
2019-03-21T08:03:50.704Z,8.20
2019-03-21T08:06:19.859Z,6.90
2019-03-21T08:08:51.034Z,9.77
2019-03-21T08:11:20.661Z,14.23
2019-03-21T08:13:49.750Z,8.17
2019-03-21T08:16:18.220Z,8.70
2019-03-21T08:18:46.522Z,9.70
2019-03-21T08:21:15.347Z,7.07
2019-03-21T08:23:44.367Z,7.63
2019-03-21T08:26:13.212Z,9.73
2019-03-21T08:28:42.149Z,8.90
2019-03-21T08:31:15.789Z,7.80
2019-03-21T08:33:44.439Z,16.07
2019-03-21T08:36:13.699Z,7.67
2019-03-21T08:38:44.376Z,9.07
2019-03-21T08:41:13.272Z,8.13
2019-03-21T08:43:42.280Z,8.00
2019-03-21T08:46:11.031Z,9.50
2019-03-21T08:48:40.233Z,8.43
2019-03-21T08:51:09.013Z,6.70
2019-03-21T08:53:37.823Z,8.40
2019-03-21T08:56:07.093Z,10.87
2019-03-21T08:58:36.528Z,7.40
2019-03-21T09:01:05.713Z,11.20
2019-03-21T09:03:34.185Z,6.90
2019-03-21T09:06:02.268Z,10.27
2019-03-21T09:08:30.636Z,11.47
2019-03-21T09:11:00.103Z,10.33
2019-03-21T09:13:29.439Z,10.93
2019-03-21T09:15:57.721Z,6.67
2019-03-21T09:18:27.142Z,7.70
2019-03-21T09:20:55.786Z,8.87
2019-03-21T09:23:24.840Z,6.20
2019-03-21T09:25:53.606Z,7.37
2019-03-21T09:28:22.078Z,6.60
2019-03-21T09:30:50.818Z,10.03
2019-03-21T09:33:19.284Z,7.07
2019-03-21T09:35:47.952Z,10.40
2019-03-21T09:38:15.871Z,7.47
2019-03-21T09:40:46.732Z,9.33
2019-03-21T09:43:15.562Z,6.07
2019-03-21T09:45:44.316Z,11.40
2019-03-21T09:48:12.430Z,8.13
2019-03-21T09:50:43.841Z,12.10
2019-03-21T09:53:12.099Z,6.50
2019-03-21T09:55:43.322Z,6.80
2019-03-21T09:58:11.527Z,7.00
2019-03-21T10:00:39.626Z,10.20
2019-03-21T10:03:07.834Z,8.53
2019-03-21T10:05:36.160Z,6.57
2019-03-21T10:08:04.797Z,8.70
2019-03-21T10:10:33.058Z,5.97
2019-03-21T10:13:01.518Z,4.93
2019-03-21T10:15:29.713Z,5.00
2019-03-21T10:17:57.863Z,8.00
2019-03-21T10:20:26.312Z,7.97
2019-03-21T10:22:54.987Z,8.37
2019-03-21T10:25:22.979Z,8.40
2019-03-21T10:27:51.268Z,9.47
2019-03-21T10:30:34.248Z,5.87
2019-03-21T10:33:02.940Z,5.20
2019-03-21T10:35:32.756Z,5.43
2019-03-21T10:38:01.541Z,5.30
2019-03-21T10:40:29.816Z,5.60
2019-03-21T10:42:57.989Z,5.17
2019-03-21T10:45:26.782Z,4.50
2019-03-21T10:47:56.332Z,5.43
2019-03-21T10:50:29.550Z,4.87
2019-03-21T10:52:59.640Z,6.97
2019-03-21T10:55:28.369Z,4.53
2019-03-21T10:57:56.785Z,4.37
2019-03-21T11:00:26.291Z,4.17
2019-03-21T11:02:54.714Z,5.03
2019-03-21T11:05:23.443Z,5.00
2019-03-21T11:07:51.624Z,6.60
2019-03-21T11:10:20.588Z,5.27
2019-03-21T11:12:50.054Z,9.07
2019-03-21T11:15:18.413Z,5.43
2019-03-21T11:17:47.073Z,7.13
2019-03-21T11:20:32.981Z,5.17
2019-03-21T11:23:01.509Z,3.97
2019-03-21T11:25:29.965Z,6.57
2019-03-21T11:27:59.329Z,4.00
2019-03-21T11:30:33.284Z,5.17
2019-03-21T11:33:01.706Z,7.40
2019-03-21T11:36:08.513Z,14.80
2019-03-21T11:39:01.355Z,11.80
2019-03-21T11:42:06.747Z,9.97
2019-03-21T11:44:45.937Z,9.70
2019-03-21T11:47:17.549Z,8.40
2019-03-21T11:49:46.302Z,9.23
2019-03-21T11:52:25.995Z,6.93
2019-03-21T11:54:54.104Z,5.83
2019-03-21T11:57:22.553Z,4.43
2019-03-21T11:59:52.425Z,5.37
2019-03-21T12:02:27.060Z,6.50
2019-03-21T12:04:52.237Z,8.40
2019-03-21T12:07:20.909Z,5.00
2019-03-21T12:09:49.604Z,5.43
2019-03-21T12:12:18.292Z,4.93
2019-03-21T12:14:46.282Z,4.37
2019-03-21T12:17:15.381Z,5.37
2019-03-21T12:23:30.032Z,4.93
2019-03-21T12:25:58.624Z,7.30
2019-03-21T12:28:27.096Z,7.30
2019-03-21T12:30:57.103Z,7.67
2019-03-21T12:33:25.286Z,15.30
2019-03-21T12:35:54.280Z,13.60
2019-03-21T12:38:24.006Z,9.40
2019-03-21T12:40:53.087Z,12.27
2019-03-21T12:43:21.704Z,11.00
2019-03-21T12:45:50.197Z,9.63
2019-03-21T12:48:18.973Z,7.40
2019-03-21T12:50:48.020Z,9.50
2019-03-21T12:53:16.899Z,8.70
2019-03-21T12:55:45.345Z,7.30
2019-03-21T12:58:14.630Z,7.70
2019-03-21T13:00:44.227Z,5.70
2019-03-21T13:03:14.440Z,8.00
2019-03-21T13:05:43.460Z,6.30
2019-03-21T13:08:11.658Z,8.27
2019-03-21T13:10:42.225Z,5.93
2019-03-21T13:13:11.009Z,9.23
2019-03-21T13:15:40.169Z,9.30
2019-03-21T13:18:11.955Z,16.93
2019-03-21T13:20:40.759Z,12.50
2019-03-21T13:23:09.184Z,7.00
2019-03-21T13:25:37.734Z,11.07
2019-03-21T13:28:13.303Z,7.50
2019-03-21T13:30:42.668Z,7.70
2019-03-21T13:34:06.042Z,6.20
2019-03-21T13:36:58.252Z,6.50
2019-03-21T13:39:28.397Z,5.60
2019-03-21T13:42:09.749Z,7.70
2019-03-21T13:45:20.391Z,11.07
2019-03-21T13:47:55.624Z,7.57
2019-03-21T13:50:24.242Z,5.70
2019-03-21T13:53:04.181Z,8.23
2019-03-21T13:55:24.797Z,5.47
2019-03-21T13:57:53.638Z,4.83
2019-03-21T14:00:22.477Z,4.77
2019-03-21T14:02:50.627Z,5.10
2019-03-21T14:05:20.264Z,4.97
2019-03-21T14:07:48.787Z,6.17
2019-03-21T14:10:16.970Z,3.57
2019-03-21T14:12:45.151Z,4.83
2019-03-21T14:15:14.070Z,5.70
2019-03-21T14:17:43.028Z,6.73
2019-03-21T14:20:12.573Z,7.80
2019-03-21T14:22:41.438Z,9.37
2019-03-21T14:25:09.891Z,10.80
2019-03-21T14:31:01.936Z,8.83
2019-03-21T14:33:31.023Z,7.47
2019-03-21T14:35:59.931Z,6.67
2019-03-21T14:38:28.361Z,8.37
2019-03-21T14:40:57.171Z,8.00
2019-03-21T14:43:26.249Z,10.27
2019-03-21T14:45:55.922Z,7.20
2019-03-21T14:48:24.426Z,11.20
2019-03-21T14:50:53.108Z,7.03
2019-03-21T14:53:28.733Z,6.03
2019-03-21T14:56:21.052Z,5.50
2019-03-21T14:58:49.942Z,5.40
2019-03-21T15:01:19.136Z,5.77
2019-03-21T15:03:47.814Z,5.90
2019-03-21T15:06:16.372Z,5.13
2019-03-21T15:08:44.657Z,7.30
2019-03-21T15:11:17.367Z,5.00
2019-03-21T15:13:43.919Z,8.07
2019-03-21T15:16:13.025Z,8.57
2019-03-21T15:18:41.565Z,10.77
2019-03-21T15:21:09.751Z,8.60
2019-03-21T15:23:41.416Z,8.50
2019-03-21T15:26:10.074Z,7.30
2019-03-21T15:29:08.516Z,7.47
2019-03-21T15:31:40.299Z,9.20
2019-03-21T15:34:08.922Z,9.17
2019-03-21T15:36:37.208Z,8.87
2019-03-21T15:39:24.521Z,8.43
2019-03-21T15:41:53.969Z,6.30
2019-03-21T15:44:22.588Z,6.60
2019-03-21T15:46:51.103Z,7.70
2019-03-21T15:49:21.090Z,7.87
2019-03-21T15:51:49.795Z,7.43
2019-03-21T15:54:18.052Z,7.23
2019-03-21T15:56:46.356Z,6.00
2019-03-21T15:59:14.913Z,9.40
2019-03-21T16:01:45.571Z,10.87
2019-03-21T16:04:15.037Z,9.13
2019-03-21T16:06:43.736Z,8.27
2019-03-21T16:09:12.741Z,12.07
2019-03-21T16:11:41.655Z,9.00
2019-03-21T16:14:10.105Z,9.80
2019-03-21T16:16:38.187Z,8.20
2019-03-21T16:19:07.254Z,11.60
2019-03-21T16:21:37.495Z,9.10
2019-03-21T16:24:05.928Z,11.90
2019-03-21T16:26:36.795Z,6.90
2019-03-21T16:29:05.304Z,7.93
2019-03-21T16:31:34.443Z,7.20
2019-03-21T16:34:02.792Z,7.30
2019-03-21T16:36:31.248Z,9.13
2019-03-21T16:38:59.822Z,9.97
2019-03-21T16:41:28.509Z,9.40
2019-03-21T16:43:57.174Z,11.13
2019-03-21T16:46:28.662Z,9.47
2019-03-21T16:48:57.133Z,9.70
2019-03-21T16:51:28.518Z,8.80
2019-03-21T16:53:58.397Z,7.03
2019-03-21T16:56:26.689Z,6.83
2019-03-21T16:58:55.893Z,5.60
2019-03-21T17:01:28.322Z,8.80
2019-03-21T17:03:57.509Z,10.57
2019-03-21T17:06:27.124Z,8.37
2019-03-21T17:08:56.133Z,6.30
2019-03-21T17:11:25.241Z,5.07
2019-03-21T17:13:53.546Z,8.20
2019-03-21T17:16:22.431Z,6.00
2019-03-21T17:18:50.693Z,8.70
2019-03-21T17:21:19.588Z,12.30
2019-03-21T17:23:47.976Z,7.47
2019-03-21T17:26:16.596Z,11.17
2019-03-21T17:28:45.625Z,8.10
2019-03-21T17:31:14.133Z,10.10
2019-03-21T17:33:42.828Z,7.60
2019-03-21T17:36:12.169Z,12.43
2019-03-21T17:38:40.950Z,10.03
2019-03-21T17:41:09.969Z,9.63
2019-03-21T17:43:39.509Z,9.67
2019-03-21T17:46:08.133Z,10.07
2019-03-21T17:48:36.786Z,12.87
2019-03-21T17:51:05.323Z,9.37
2019-03-21T17:53:34.087Z,13.60
2019-03-21T17:56:04.431Z,11.40
2019-03-21T17:58:34.204Z,9.13
2019-03-21T18:01:34.682Z,10.20
2019-03-21T18:04:38.720Z,11.17
2019-03-21T18:08:10.323Z,9.03
2019-03-21T18:11:31.603Z,9.77
2019-03-21T18:14:25.086Z,8.47
2019-03-21T18:17:45.636Z,6.83
2019-03-21T18:20:48.369Z,9.83
2019-03-21T18:23:17.622Z,9.30
2019-03-21T18:25:48.020Z,9.63
2019-03-21T18:28:17.836Z,9.70
2019-03-21T18:30:47.219Z,8.30
2019-03-21T18:33:19.090Z,11.33
2019-03-21T18:35:46.081Z,12.20
2019-03-21T18:38:14.793Z,9.63
2019-03-21T18:40:44.078Z,10.13
2019-03-21T18:43:12.439Z,13.63
2019-03-21T18:45:40.630Z,10.57
2019-03-21T18:48:09.618Z,15.00
2019-03-21T18:50:38.796Z,12.53
2019-03-21T18:53:07.845Z,12.90
2019-03-21T18:55:37.210Z,14.17
2019-03-21T18:58:06.209Z,12.97
2019-03-21T19:00:34.489Z,14.63
2019-03-21T19:03:02.936Z,12.97
2019-03-21T19:05:31.231Z,10.60
2019-03-21T19:07:59.323Z,14.93
2019-03-21T19:10:27.592Z,14.37
2019-03-21T19:12:55.863Z,16.57
2019-03-21T19:15:24.282Z,15.80
2019-03-21T19:17:52.301Z,22.40
2019-03-21T19:20:21.198Z,22.13
2019-03-21T19:22:49.294Z,24.60
2019-03-21T19:25:19.453Z,36.10
2019-03-21T19:27:48.234Z,36.57
2019-03-21T19:30:16.450Z,34.70
2019-03-21T19:32:46.369Z,29.57
2019-03-21T19:35:31.406Z,23.97
2019-03-21T19:37:59.990Z,30.27
2019-03-21T19:40:29.967Z,23.40
2019-03-21T19:43:00.616Z,21.97
2019-03-21T19:45:29.658Z,21.37
2019-03-21T19:47:58.355Z,20.30
2019-03-21T19:50:29.996Z,20.33
2019-03-21T19:52:58.578Z,21.80
2019-03-21T19:55:31.158Z,18.13
2019-03-21T19:57:58.339Z,20.80
2019-03-21T20:00:26.382Z,18.47
2019-03-21T20:02:54.971Z,19.47
2019-03-21T20:05:23.859Z,19.60
2019-03-21T20:07:54.527Z,20.90
2019-03-21T20:10:25.522Z,21.83
2019-03-21T20:12:55.053Z,21.97
2019-03-21T20:15:23.661Z,25.93
2019-03-21T20:17:52.790Z,20.90
2019-03-21T20:20:22.039Z,21.30
2019-03-21T20:22:50.759Z,23.83
2019-03-21T20:25:19.761Z,26.20
2019-03-21T20:27:49.783Z,25.03
2019-03-21T20:30:21.026Z,22.97
2019-03-21T20:32:50.014Z,19.87
2019-03-21T20:35:19.269Z,25.20
2019-03-21T20:37:48.136Z,27.40
2019-03-21T20:40:17.252Z,24.53
2019-03-21T20:42:46.140Z,24.07
2019-03-21T20:45:15.444Z,23.43
2019-03-21T20:47:49.915Z,26.60
2019-03-21T20:50:18.287Z,28.33
2019-03-21T20:52:47.739Z,24.53
2019-03-21T20:55:16.325Z,26.53
2019-03-21T20:57:44.631Z,28.33
2019-03-21T21:00:15.855Z,27.30
2019-03-21T21:02:44.968Z,27.80
2019-03-21T21:05:14.392Z,25.43
2019-03-21T21:07:42.500Z,29.97
2019-03-21T21:10:10.903Z,28.03
2019-03-21T21:12:39.163Z,26.47
2019-03-21T21:15:08.784Z,28.63
2019-03-21T21:17:36.873Z,27.20
2019-03-21T21:20:06.558Z,32.40
2019-03-21T21:22:34.625Z,28.87
2019-03-21T21:25:03.237Z,27.67
2019-03-21T21:27:31.700Z,32.23
2019-03-21T21:30:00.444Z,32.30
2019-03-21T21:32:29.141Z,27.63
2019-03-21T21:34:57.567Z,29.03
2019-03-21T21:37:26.495Z,34.03
2019-03-21T21:39:55.378Z,31.60
2019-03-21T21:42:23.921Z,31.83
2019-03-21T21:44:52.699Z,34.00
2019-03-21T21:47:21.240Z,43.77
2019-03-21T21:49:50.019Z,34.27
2019-03-21T21:52:18.201Z,28.50
2019-03-21T21:54:49.170Z,35.00
2019-03-21T21:57:16.829Z,32.73
2019-03-21T21:59:48.389Z,30.00
2019-03-21T22:02:17.288Z,30.50
2019-03-21T22:04:45.988Z,30.33
2019-03-21T22:07:14.351Z,33.00
2019-03-21T22:09:42.884Z,30.07
2019-03-21T22:12:11.831Z,31.23
2019-03-21T22:14:40.156Z,28.47
2019-03-21T22:17:08.276Z,31.60
2019-03-21T22:19:36.693Z,33.07
2019-03-21T22:22:05.289Z,32.53
2019-03-21T22:24:33.775Z,36.27
2019-03-21T22:27:02.725Z,28.70
2019-03-21T22:29:31.495Z,33.30
2019-03-21T22:32:00.188Z,33.13
2019-03-21T22:34:29.212Z,33.03
2019-03-21T22:36:57.871Z,34.00
2019-03-21T22:39:27.082Z,33.77
2019-03-21T22:41:56.980Z,32.27
2019-03-21T22:44:25.335Z,31.70
2019-03-21T22:46:54.575Z,32.13
2019-03-21T22:49:23.357Z,38.10
2019-03-21T22:51:51.816Z,34.67
2019-03-21T22:54:21.154Z,38.87
2019-03-21T22:56:49.988Z,38.27
2019-03-21T22:59:19.439Z,40.47
2019-03-21T23:01:47.996Z,39.13
2019-03-21T23:04:16.560Z,39.20
2019-03-21T23:06:45.366Z,40.10
2019-03-21T23:09:13.486Z,37.80
2019-03-21T23:11:42.429Z,42.70
2019-03-21T23:14:11.017Z,40.87
2019-03-21T23:16:39.290Z,37.90
2019-03-21T23:19:07.674Z,37.33
2019-03-21T23:21:36.111Z,38.57
2019-03-21T23:24:05.672Z,34.20
2019-03-21T23:26:34.327Z,33.57
2019-03-21T23:29:09.716Z,36.93
2019-03-21T23:31:38.579Z,39.60
2019-03-21T23:34:07.358Z,50.10
2019-03-21T23:36:36.394Z,37.60
2019-03-21T23:39:05.631Z,35.60
2019-03-21T23:41:34.685Z,38.30
2019-03-21T23:44:03.783Z,39.73
2019-03-21T23:46:32.026Z,42.33
2019-03-21T23:49:00.597Z,38.27
2019-03-21T23:51:28.663Z,39.37
2019-03-21T23:53:57.093Z,41.67
2019-03-21T23:56:26.481Z,39.50
2019-03-21T23:58:54.836Z,42.97
